Latest Weather Observations for Pearce

IDW60801

Issued at 8:23 am WST Tuesday 16 August 2022 (issued every 10 minutes, with the page automatically refreshed every 10 minutes)

About weather observations | Map of weather stations | Latest weather observations for WA | Other Formats
Station Details ID: 009053 Name: PEARCE RAAF Lat: -31.67 Lon: 116.02 Height: 40.0 m
Data from the previous 72 hours. | See also: Recent months at Pearce
Date/Time
WST
Temp
°C
App
Temp
°C
Dew
Point
°C
Rel
Hum
%
Delta-T
°C
Wind Press
QNH
hPa
Press
MSL
hPa
Rain since
9am
mm
Dir  Spd
km/h
Gust
km/h
Spd
kts
Gust
kts
16/08:00am 16.7 16.1 15.6 93 0.6 N 13 17 7 9 1004.7 1004.7 21.4
16/07:30am 16.6 16.7 15.5 93 0.6 NNW 9 11 5 6 1004.5 1004.5 21.4
16/07:00am 16.7 16.8 15.6 93 0.6 NW 9 11 5 6 1004.3 1004.3 21.4
16/06:30am 16.9 16.4 15.8 93 0.6 NW 13 19 7 10 1003.9 1003.9 21.0
16/06:00am 17.1 14.8 15.8 92 0.8 NW 22 32 12 17 1003.5 1003.5 20.8
16/05:30am 17.0 16.4 15.7 92 0.8 NNW 13 17 7 9 1003.1 1003.1 20.8
16/05:17am 17.1 15.8 15.8 92 0.8 NW 17 22 9 12 1002.8 1002.8 20.8
16/05:00am 17.2 13.8 15.7 91 0.9 NW 28 35 15 19 1003.0 1003.0 20.6
16/04:50am 17.5 15.6 15.8 90 1.0 NW 20 30 11 16 1003.1 1003.1 19.0
16/04:30am 17.9 16.4 16.2 90 1.0 WNW 19 24 10 13 1003.0 1003.0 18.2
16/04:10am 18.0 16.6 16.5 91 0.9 WNW 19 26 10 14 1002.7 1002.7 18.2
16/04:00am 18.2 16.6 16.5 90 1.0 WNW 20 28 11 15 1002.4 1002.4 18.2
16/03:30am 18.5 16.0 17.0 91 0.9 NNW 26 37 14 20 1002.7 1002.7 18.0
16/03:00am 18.6 16.9 17.3 92 0.8 NNW 22 28 12 15 1003.0 1003.0 17.8
16/02:30am 18.6 16.6 17.4 93 0.7 NNW 24 33 13 18 1002.9 1002.9 17.8
16/02:00am 18.5 16.8 17.2 92 0.8 NNW 22 32 12 17 1002.8 1002.8 17.8
16/01:30am 18.4 17.0 16.9 91 0.9 N 20 24 11 13 1002.9 1002.9 17.2
16/01:06am 18.6 16.4 16.9 90 1.0 N 24 32 13 17 1002.7 1002.7 16.8
16/01:00am 18.6 16.4 16.9 90 1.0 N 24 32 13 17 1002.9 1002.9 16.8
16/12:30am 18.7 15.7 16.9 89 1.1 N 28 41 15 22 1002.9 1002.9 16.2
16/12:00am 18.4 15.4 16.9 91 0.9 N 28 37 15 20 1002.9 1002.9 16.0
 
Date/Time
WST
Temp
°C
App
Temp
°C
Dew
Point
°C
Rel
Hum
%
Delta-T
°C
Wind Press
QNH
hPa
Press
MSL
hPa
Rain since
9am
mm
Dir  Spd
km/h
Gust
km/h
Spd
kts
Gust
kts
15/11:30pm 18.3 16.1 17.0 92 0.8 N 24 33 13 18 1003.9 1003.9 15.0
15/11:18pm 18.2 16.0 16.9 92 0.8 N 24 33 13 18 1004.2 1004.2 14.0
15/11:00pm 18.3 14.9 16.8 91 0.9 N 30 35 16 19 1004.3 1004.3 12.6
15/10:38pm 18.3 14.8 16.6 90 1.0 N 30 37 16 20 1004.4 1004.4 9.6
15/10:30pm 18.4 14.9 16.6 89 1.1 N 30 39 16 21 1004.5 1004.5 8.2
15/10:00pm 18.9 16.4 16.1 84 1.7 N 24 33 13 18 1004.7 1004.7 7.0
15/09:47pm 18.8 15.5 16.0 84 1.7 NNE 28 39 15 21 1004.5 1004.5 7.0
15/09:30pm 18.0 17.1 15.8 87 1.3 N 15 20 8 11 1004.7 1004.7 7.0
15/09:00pm 17.8 16.5 15.8 88 1.2 NNE 17 20 9 11 1005.7 1005.7 7.0
15/08:30pm 17.5 16.5 15.7 89 1.1 N 15 24 8 13 1006.3 1006.3 7.0
15/08:08pm 16.7 16.3 15.2 91 0.9 NNE 11 17 6 9 1006.5 1006.5 6.4
15/08:00pm 16.7 15.9 15.1 90 0.9 N 13 17 7 9 1006.4 1006.4 6.2
15/07:45pm 16.8 15.4 14.4 86 1.4 NW 15 19 8 10 1007.3 1007.3 4.6
15/07:30pm 17.3 16.6 14.4 83 1.7 NNE 11 17 6 9 1005.8 1005.8 2.4
15/07:00pm 17.4 16.3 14.3 82 1.8 NNE 13 20 7 11 1006.0 1006.0 2.0
15/06:30pm 17.9 17.4 14.8 82 1.8 NNE 11 17 6 9 1006.6 1006.6 1.8
15/06:00pm 18.8 17.9 13.6 72 3.0 N 11 15 6 8 1007.0 1007.0 0.6
15/05:30pm 20.4 19.6 12.9 62 4.3 NNE 9 15 5 8 1006.7 1006.7 0.0
15/05:00pm 20.9 18.9 12.6 59 4.7 NE 15 24 8 13 1006.5 1006.5 0.0
15/04:30pm 22.5 20.5 11.6 50 6.1 NNE 13 19 7 10 1006.7 1006.7 0.0
15/04:00pm 22.7 20.6 11.1 48 6.5 N 13 17 7 9 1007.3 1007.3 0.0
15/03:30pm 22.8 20.3 11.2 48 6.5 NNW 15 19 8 10 1007.8 1007.8 0.0
15/03:00pm 22.5 19.5 10.6 47 6.6 NNW 17 22 9 12 1008.1 1008.1 0.0
15/02:30pm 22.6 17.4 10.1 45 6.8 NNW 28 35 15 19 1008.5 1008.5 0.0
15/02:00pm 22.8 18.5 10.9 47 6.6 NNW 24 32 13 17 1008.7 1008.7 0.0
15/01:30pm 23.0 19.4 12.0 50 6.2 N 22 30 12 16 1009.1 1009.1 0.0
15/01:00pm 22.5 17.5 10.9 47 6.4 N 28 43 15 23 1009.5 1009.5 0.0
15/12:30pm 22.2 17.1 10.7 48 6.3 N 28 37 15 20 1009.8 1009.8 0.0
15/12:00pm 21.7 16.4 11.4 52 5.7 N 30 39 16 21 1010.6 1010.6 0.0
15/11:30am 20.9 17.1 11.0 53 5.4 N 22 30 12 16 1011.1 1011.1 0.0
15/11:00am 20.0 15.5 9.9 52 5.4 N 24 32 13 17 1011.7 1011.7 0.0
15/10:30am 19.1 15.0 10.1 56 4.8 NNE 22 30 12 16 1012.2 1012.2 0.0
15/10:00am 17.9 14.1 9.8 59 4.3 NNE 20 28 11 15 1012.8 1012.8 0.0
15/09:30am 17.0 13.1 8.7 58 4.3 NNE 19 24 10 13 1013.2 1013.2 0.0
15/09:00am 16.3 12.9 7.8 57 4.3 NNE 15 20 8 11 1013.7 1013.7 0.0
15/08:30am 14.9 10.5 6.7 58 4.0 NNE 19 24 10 13 1014.0 1014.0 0.0
15/08:00am 13.7 9.6 6.3 61 3.5 N 17 26 9 14 1014.2 1014.2 0.0
15/07:30am 13.0 8.8 5.9 62 3.4 NNE 17 26 9 14 1014.3 1014.3 0.0
15/07:00am 12.6 7.4 5.5 62 3.3 ENE 22 32 12 17 1014.1 1014.1 0.0
15/06:30am 12.2 8.0 5.8 65 3.0 NE 17 28 9 15 1014.3 1014.3 0.0
15/06:00am 12.3 6.8 5.7 64 3.1 ENE 24 33 13 18 1014.0 1014.0 0.0
15/05:30am 12.5 7.0 5.9 64 3.1 ENE 24 35 13 19 1013.9 1013.9 0.0
15/05:00am 12.7 7.2 6.1 64 3.1 ENE 24 37 13 20 1014.0 1014.0 0.0
15/04:30am 12.9 7.1 6.3 64 3.1 ENE 26 35 14 19 1014.1 1014.1 0.0
15/04:00am 13.2 7.4 6.3 63 3.3 ENE 26 41 14 22 1014.3 1014.3 0.0
15/03:30am 12.9 7.5 6.3 64 3.1 ENE 24 33 13 18 1014.7 1014.7 0.0
15/03:00am 12.9 7.9 6.5 65 3.1 ENE 22 30 12 16 1015.0 1014.9 0.0
15/02:30am 13.1 7.4 6.7 65 3.1 ENE 26 35 14 19 1015.4 1015.3 0.0
15/02:00am 13.3 8.0 6.9 65 3.1 ENE 24 33 13 18 1015.8 1015.8 0.0
15/01:30am 13.1 9.5 6.9 66 3.0 NE 15 24 8 13 1016.5 1016.5 0.0
15/01:00am 12.7 8.4 7.2 69 2.7 ENE 19 28 10 15 1016.6 1016.6 0.0
15/12:30am 12.9 9.1 7.4 69 2.7 ENE 17 22 9 12 1017.0 1017.0 0.0
15/12:00am 12.5 8.7 7.4 71 2.5 NE 17 22 9 12 1017.2 1017.2 0.0
 
Date/Time
WST
Temp
°C
App
Temp
°C
Dew
Point
°C
Rel
Hum
%
Delta-T
°C
Wind Press
QNH
hPa
Press
MSL
hPa
Rain since
9am
mm
Dir  Spd
km/h
Gust
km/h
Spd
kts
Gust
kts
14/11:30pm 12.7 8.9 7.4 70 2.6 E 17 20 9 11 1017.5 1017.5 0.0
14/11:00pm 13.8 10.7 7.3 65 3.2 ENE 13 19 7 10 1017.7 1017.7 0.0
14/10:30pm 14.0 10.6 7.5 65 3.2 ENE 15 22 8 12 1018.0 1018.0 0.0
14/10:00pm 14.3 10.9 7.6 64 3.3 ENE 15 20 8 11 1018.1 1018.1 0.0
14/09:30pm 14.8 11.4 7.8 63 3.5 ENE 15 20 8 11 1018.1 1018.1 0.0
14/09:00pm 15.0 11.7 8.0 63 3.5 NE 15 20 8 11 1018.0 1018.0 0.0
14/08:30pm 15.2 11.9 8.2 63 3.5 ENE 15 19 8 10 1017.8 1017.8 0.0
14/08:00pm 15.7 12.5 8.4 62 3.7 ENE 15 19 8 10 1017.8 1017.8 0.0
14/07:30pm 15.9 12.7 8.6 62 3.7 ENE 15 22 8 12 1017.8 1017.8 0.0
14/07:00pm 15.3 13.9 8.8 65 3.3 ENE 6 9 3 5 1017.6 1017.6 0.0
14/06:30pm 15.9 14.5 9.6 66 3.3 ENE 7 9 4 5 1017.5 1017.5 0.0
14/06:00pm 16.5 14.8 9.9 65 3.5 E 9 13 5 7 1017.4 1017.4 0.0
14/05:30pm 17.2 15.4 9.4 60 4.1 ENE 9 9 5 5 1017.4 1017.4 0.0
14/05:00pm 18.0 16.0 8.8 55 4.8 NNE 9 13 5 7 1017.3 1017.3 0.0
14/04:30pm 18.2 15.7 8.2 52 5.1 N 11 17 6 9 1017.1 1017.1 0.0
14/04:00pm 18.1 15.6 8.4 53 5.0 N 11 15 6 8 1017.1 1017.1 0.0
14/03:30pm 18.6 16.5 8.3 51 5.3 NNE 9 13 5 7 1017.2 1017.2 0.0
14/03:00pm 19.0 16.9 8.4 50 5.5 NE 9 15 5 8 1017.4 1017.4 0.0
14/02:30pm 18.9 16.8 8.3 50 5.5 N 9 15 5 8 1017.4 1017.4 0.0
14/02:00pm 18.4 16.8 8.9 54 4.9 SE 7 13 4 7 1017.4 1017.4 0.0
14/01:30pm 17.8 16.1 7.5 51 5.2 NW 6 9 3 5 1017.7 1017.7 0.0
14/01:00pm 17.7 15.4 9.1 57 4.5 N 11 17 6 9 1017.9 1017.9 0.0
14/12:30pm 17.5 16.8 8.4 55 4.7 NW 2 7 1 4 1018.3 1018.3 0.0
14/12:00pm 17.6 15.4 7.9 53 4.9 NNE 9 15 5 8 1018.6 1018.6 0.0
14/11:30am 16.7 15.1 8.7 59 4.1 N 7 13 4 7 1018.8 1018.8 0.0
14/11:00am 16.3 15.1 10.2 67 3.2 N 7 11 4 6 1019.1 1019.1 0.0
14/10:30am 16.0 15.7 11.6 75 2.4 NNE 4 9 2 5 1019.3 1019.3 0.0
14/10:00am 13.8 12.6 10.2 79 1.9 NNW 7 13 4 7 1019.3 1019.3 0.0
14/09:30am 13.3 11.4 10.5 83 1.5 NE 11 19 6 10 1019.2 1019.2 0.0
14/09:00am 12.1 11.0 10.5 90 0.8 ENE 7 9 4 5 1019.0 1019.0 12.8
14/08:30am 11.0 9.7 9.9 93 0.6 WNW 7 11 4 6 1018.8 1018.8 12.8
14/08:00am 9.1 7.9 8.2 94 0.4 NE 4 9 2 5 1018.4 1018.4 12.8
14/07:30am 7.1 5.5 6.2 94 0.4 NE 4 9 2 5 1018.1 1018.1 12.8
14/07:00am 6.5 4.7 5.5 93 0.4 NNE 4 6 2 3 1017.7 1017.7 12.6
14/06:30am 6.9 6.0 6.0 94 0.4 CALM 0 7 0 4 1017.1 1017.1 12.6
14/06:00am 7.3 5.1 6.4 94 0.4 ENE 7 11 4 6 1016.5 1016.5 12.6
14/05:30am 6.7 4.6 5.7 93 0.4 NNE 6 7 3 4 1016.0 1016.0 12.6
14/05:00am 7.6 6.0 6.5 93 0.5 NE 4 9 2 5 1015.5 1015.4 12.6
14/04:30am 8.9 7.3 7.8 93 0.5 NNE 6 9 3 5 1015.3 1015.2 12.6
14/04:00am 8.8 6.9 7.7 93 0.5 NNE 7 11 4 6 1015.2 1015.1 12.6
14/03:30am 8.9 7.6 7.8 93 0.5 NNE 4 9 2 5 1015.1 1015.0 12.6
14/03:00am 8.4 7.8 7.2 92 0.6 CALM 0 0 0 0 1015.1 1015.0 12.6
14/02:30am 8.2 6.3 6.8 91 0.6 NNE 6 9 3 5 1015.1 1015.0 12.6
14/02:00am 10.1 8.2 8.9 92 0.6 NNE 9 11 5 6 1014.4 1014.4 12.6
14/01:30am 10.4 9.0 8.7 89 0.8 NNE 6 9 3 5 1014.5 1014.5 12.6
14/01:00am 10.6 9.1 9.0 90 0.8 NNE 7 9 4 5 1014.4 1014.4 12.6
14/12:30am 10.8 10.6 8.9 88 0.9 CALM 0 0 0 0 1014.4 1014.4 12.6
14/12:00am 10.9 9.6 9.2 89 0.8 NNW 6 9 3 5 1014.2 1014.2 12.6
 
Date/Time
WST
Temp
°C
App
Temp
°C
Dew
Point
°C
Rel
Hum
%
Delta-T
°C
Wind Press
QNH
hPa
Press
MSL
hPa
Rain since
9am
mm
Dir  Spd
km/h
Gust
km/h
Spd
kts
Gust
kts
13/11:30pm 11.1 9.2 9.2 88 1.0 W 9 13 5 7 1014.2 1014.2 12.6
13/11:00pm 11.4 9.5 9.1 86 1.2 WNW 9 13 5 7 1013.9 1013.9 12.6
13/10:30pm 12.6 12.8 10.7 88 1.0 CALM 0 0 0 0 1013.6 1013.6 12.6
13/10:00pm 12.8 11.7 10.5 86 1.2 WSW 7 11 4 6 1013.3 1013.3 12.6
13/09:30pm 12.9 11.8 10.6 86 1.2 WNW 7 11 4 6 1012.7 1012.7 12.6
13/09:00pm 13.1 11.2 10.6 85 1.3 W 11 15 6 8 1012.3 1012.3 12.4
13/08:30pm 13.3 11.3 11.5 89 1.0 WNW 13 20 7 11 1011.9 1011.9 12.4
13/08:00pm 12.7 10.6 11.1 90 0.8 N 13 17 7 9 1011.1 1011.1 12.4
13/07:30pm 13.1 11.5 11.5 90 0.9 NNW 11 17 6 9 1010.5 1010.5 11.8
13/07:00pm 13.2 11.2 11.6 90 0.9 NW 13 22 7 12 1010.1 1010.1 11.6
13/06:51pm 13.4 10.7 11.8 90 0.9 NNW 17 24 9 13 1009.9 1009.9 11.2
13/06:30pm 13.2 11.2 11.4 89 1.0 WNW 13 19 7 10 1009.8 1009.8 9.6
13/06:27pm 13.3 11.3 11.4 88 1.0 WNW 13 19 7 10 1009.6 1009.6 8.2
13/06:06pm 13.2 10.3 11.1 87 1.1 WNW 17 24 9 13 1009.5 1009.5 7.2
13/06:00pm 13.3 10.3 10.8 85 1.3 NNW 17 24 9 13 1009.0 1009.0 5.6
13/05:30pm 13.6 9.0 11.1 85 1.3 NNW 26 37 14 20 1008.6 1008.6 5.6
13/05:00pm 14.3 8.3 10.7 79 1.9 WNW 33 56 18 30 1008.1 1008.1 5.2
13/04:30pm 16.2 10.9 11.2 72 2.7 WNW 30 48 16 26 1007.6 1007.6 5.0
13/04:15pm 17.1 13.4 12.8 76 2.4 NW 24 56 13 30 1007.4 1007.4 5.0
13/04:00pm 16.7 14.5 14.5 87 1.3 NNW 19 24 10 13 1007.1 1007.1 5.0
13/03:30pm 15.8 13.0 14.3 91 0.9 N 22 28 12 15 1006.6 1006.6 5.0
13/03:00pm 14.7 11.2 13.4 92 0.7 N 24 30 13 16 1006.9 1006.9 4.8
13/02:47pm 14.2 11.0 13.1 93 0.6 N 22 35 12 19 1007.0 1007.0 4.8
13/02:43pm 14.2 10.6 13.1 93 0.6 N 24 35 13 19 1006.8 1006.8 4.8
13/02:30pm 13.5 8.5 12.2 92 0.7 N 30 39 16 21 1006.6 1006.6 4.8
13/02:24pm 13.6 9.0 12.3 92 0.7 NNW 28 35 15 19 1007.0 1007.0 4.4
13/02:18pm 13.3 9.3 11.9 91 0.8 NNW 24 35 13 19 1007.1 1007.1 4.2
13/02:05pm 13.3 9.0 11.9 91 0.8 N 26 37 14 20 1006.2 1006.2 4.2
13/02:02pm 13.3 8.5 11.7 90 0.9 N 28 37 15 20 1006.5 1006.5 4.0
13/02:00pm 13.3 8.5 11.7 90 0.9 N 28 33 15 18 1006.4 1006.4 4.0
13/01:42pm 13.0 7.6 10.9 87 1.1 N 30 39 16 21 1006.3 1006.3 3.6
13/01:33pm 13.4 8.0 10.9 85 1.3 N 30 41 16 22 1005.6 1005.6 3.2
13/01:30pm 13.4 8.0 10.9 85 1.3 N 30 41 16 22 1005.6 1005.6 3.2
13/01:14pm 13.3 8.3 11.0 86 1.2 N 28 39 15 21 1006.2 1006.2 2.8
13/01:00pm 13.4 8.3 10.6 83 1.5 N 28 37 15 20 1006.5 1006.5 2.0
13/12:30pm 12.7 7.3 9.5 81 1.6 N 28 37 15 20 1006.9 1006.9 1.8
13/12:00pm 13.4 7.5 8.9 74 2.3 N 30 41 16 22 1007.4 1007.4 1.0
13/11:30am 14.1 8.2 7.4 64 3.3 N 28 37 15 20 1008.4 1008.4 0.2
13/11:00am 16.5 7.2 2.9 40 6.2 N 41 61 22 33 1007.7 1007.7 0.0
13/10:38am 16.0 7.7 4.4 46 5.4 NNE 37 59 20 32 1007.4 1007.4 0.0
13/10:30am 16.9 7.6 0.5 33 7.1 N 39 54 21 29 1007.5 1007.5 0.0
13/10:23am 16.7 9.2 1.2 35 6.8 NNE 30 50 16 27 1007.5 1007.5 0.0
13/10:00am 16.9 9.8 -1.2 29 7.6 N 26 37 14 20 1008.3 1008.3 0.0
13/09:30am 16.1 10.9 0.3 34 6.8 N 17 26 9 14 1008.8 1008.8 0.0
13/09:00am 16.1 10.4 0.7 35 6.7 NNE 20 32 11 17 1009.2 1009.2 0.0
13/08:30am 15.8 10.5 -0.4 33 6.8 NNW 17 28 9 15 1009.2 1009.2 0.0

Other formats

Comma delimited format used in spreadsheet applications
http://www.bom.gov.au/fwo/IDW60801/IDW60801.94612.axf

JavaScript Object Notation format (JSON) in row-major order
http://www.bom.gov.au/fwo/IDW60801/IDW60801.94612.json

Data quality

Most of these data are generated automatically and are frequently updated. Quality checks on data are not normally performed. It is possible for incorrect values to appear. Refer to information at About Latest Weather Observations and please check the disclaimer before using these data.